Acapulco, Mexico

4:02 AM CDT on July 26, 2017 (GMT -0500)
Gen Juan N Alvarez International | | Change Station

Elev 13 ft 16.76 °N, 99.75 °W | Updated 17 minutes ago

Mostly Cloudy
Mostly Cloudy
79 °F
Feels Like 79 °F
N
5
Wind Variable Wind from NNE

Today
High -- | Low -- °F
--% Chance of Precip.
Yesterday
High -- | Low -- °F
Precip. -- in
Pressure 29.91 in
Visibility 7.0 miles
Clouds Few 1500 ft
Scattered Clouds 9000 ft
Mostly Cloudy 30000 ft
Dew Point 73 °F
Humidity 83%
Rainfall 0.00 in
Snow Depth Not available.
7:17 AM 8:13 PM
Waxing Crescent, 11% visible
METAR MMAA 260845Z 02004KT 7SM FEW015TCU SCT090 BKN300 26/23 A2990 RMK SLP126 57009 956 8/262 HZY
Pressure 29.91 in
Visibility 7.0 miles
Clouds Few 1500 ft
Scattered Clouds 9000 ft
Mostly Cloudy 30000 ft
Dew Point 73 °F
Humidity 83%
Rainfall 0.00 in
Snow Depth Not available.
7:17 AM 8:13 PM
Waxing Crescent, 11% visible
METAR MMAA 260845Z 02004KT 7SM FEW015TCU SCT090 BKN300 26/23 A2990 RMK SLP126 57009 956 8/262 HZY

Get Severe Weather Alerts

Thanks for signing up!

Be on the lookout for a verification email in your inbox.

You'll start receiving the daily forecast at 6 AM.

×

10-Day Weather Forecast

No radar image for this location.
×

Almanac

Astronomy

Jul. 26, 2017 Rise Set
Actual Time
Civil Twilight
Nautical Twilight
Astronomical Twilight
Moon
Length of Visible Light
Length of Day
Tomorrow will be .
, % of the Moon is Illuminated

Today's Extremes

Country Highs Country Lows

Community

WunderPhotos

Category 6

Welcome to Category 6. This is the collective home for Weather Underground's featured writeups by Dr. Jeff Masters (right), Bob Henson (left), Chris Burt, and other regular contributors.

Nearby

Air Quality

  Air Quality AQ Index Pollutant
Not available.

Snow Depth

Station Depth Elevation

Earthquake Activity

City Distance Mag. Time & Date
Minimum magnitude displayed is 2.5.

Coastal Water Temperatures

Place Temperature

Stations

Nearby Weather Stations

Station Location Temp. Windchill Dew Point Humidity Wind Precip. Elev Updated Type